Time;durP1;ratioP1;P1;durP2;ratioP2;P2;SDS_P1;SDS_P2;PMS_P1;PMS_P2;Temp;Humidity;BMP_temperature;BMP_pressure;BME280_temperature;BME280_humidity;BME280_pressure;Samples;Min_cycle;Max_cycle;Signal;HPM_P1;HPM_P2
2023/09/16 00:01:25;;;;;;;8.23;4.87;;;27.70;48.90;;;;;;5077746;27;89581;-59
2023/09/16 00:03:53;;;;;;;5.63;4.03;;;27.70;49.30;;;;;;5060939;27;89078;-59
2023/09/16 00:06:22;;;;;;;7.63;4.73;;;27.80;48.90;;;;;;5065181;27;89954;-59
2023/09/16 00:08:50;;;;;;;8.97;4.90;;;27.70;48.90;;;;;;5077925;27;87447;-58
2023/09/16 00:11:19;;;;;;;10.13;4.60;;;27.70;48.90;;;;;;5074316;27;89465;-59
2023/09/16 00:13:48;;;;;;;6.07;4.40;;;27.70;48.90;;;;;;5077929;27;89354;-59
2023/09/16 00:16:16;;;;;;;7.27;4.60;;;27.70;48.90;;;;;;5076533;27;88912;-60
2023/09/16 00:18:45;;;;;;;7.23;4.50;;;27.70;48.90;;;;;;5079310;27;89351;-58
2023/09/16 00:21:14;;;;;;;5.67;4.23;;;27.70;48.90;;;;;;5079042;27;91676;-59
2023/09/16 00:23:43;;;;;;;6.17;4.30;;;27.70;48.90;;;;;;5078903;27;88957;-59
2023/09/16 00:26:13;;;;;;;5.03;3.90;;;27.70;48.90;;;;;;5078297;27;88797;-62
2023/09/16 00:28:42;;;;;;;5.53;3.40;;;27.70;48.90;;;;;;5080257;27;87512;-59
2023/09/16 00:31:11;;;;;;;7.40;4.10;;;27.70;48.90;;;;;;5078941;27;89898;-59
2023/09/16 00:33:39;;;;;;;5.67;3.57;;;27.70;48.90;;;;;;5079042;27;88625;-59
2023/09/16 00:36:08;;;;;;;3.33;3.00;;;27.70;48.90;;;;;;5079076;27;88939;-59
2023/09/16 00:38:36;;;;;;;5.93;4.20;;;27.70;49.50;;;;;;5078971;27;87730;-59
2023/09/16 00:41:04;;;;;;;6.27;3.87;;;27.70;48.90;;;;;;5078643;27;89686;-59
2023/09/16 00:43:32;;;;;;;5.10;4.07;;;27.70;48.90;;;;;;5078367;27;90049;-59
2023/09/16 00:46:02;;;;;;;4.20;3.80;;;27.70;48.90;;;;;;5078519;27;89909;-59
2023/09/16 00:48:31;;;;;;;4.80;3.27;;;27.70;48.90;;;;;;5078664;27;87539;-58
2023/09/16 00:50:59;;;;;;;4.50;3.43;;;27.70;48.90;;;;;;5079059;27;89692;-59
2023/09/16 00:53:27;;;;;;;3.83;3.30;;;27.70;48.90;;;;;;5079483;27;88797;-59
2023/09/16 00:55:55;;;;;;;4.27;3.53;;;27.70;48.90;;;;;;5077448;27;88817;-59
2023/09/16 00:58:23;;;;;;;5.47;3.77;;;27.60;48.80;;;;;;5058430;27;87623;-58
2023/09/16 01:00:52;;;;;;;4.53;3.30;;;27.70;48.90;;;;;;5064434;27;89691;-58
2023/09/16 01:03:23;;;;;;;5.67;3.60;;;27.60;49.50;;;;;;5078195;27;89090;-58
2023/09/16 01:05:52;;;;;;;4.90;3.43;;;27.70;48.90;;;;;;5078014;27;89053;-58
2023/09/16 01:08:20;;;;;;;4.97;3.40;;;27.70;48.90;;;;;;5078513;27;88171;-59
2023/09/16 01:10:48;;;;;;;4.37;3.33;;;27.60;48.90;;;;;;5079095;27;89884;-59
2023/09/16 01:13:16;;;;;;;4.47;2.77;;;27.60;48.90;;;;;;5078774;27;89152;-59
2023/09/16 01:15:49;;;;;;;4.17;3.13;;;27.60;48.90;;;;;;5077436;27;89315;-59
2023/09/16 01:18:19;;;;;;;6.33;3.80;;;27.60;48.90;;;;;;5079374;27;88112;-58
2023/09/16 01:20:49;;;;;;;4.27;3.27;;;27.60;48.90;;;;;;5077581;27;88889;-59
2023/09/16 01:23:19;;;;;;;5.10;3.20;;;27.60;48.90;;;;;;5074744;27;89211;-59
2023/09/16 01:25:49;;;;;;;7.00;3.70;;;27.60;48.90;;;;;;5076825;27;89211;-59
2023/09/16 01:28:17;;;;;;;5.30;3.37;;;27.60;48.90;;;;;;5077760;27;87638;-59
2023/09/16 01:30:47;;;;;;;6.37;4.17;;;27.60;48.90;;;;;;5077285;27;89679;-58
2023/09/16 01:33:20;;;;;;;5.30;3.53;;;27.60;48.90;;;;;;5077142;27;90251;-58
2023/09/16 01:35:49;;;;;;;6.33;4.00;;;27.50;48.90;;;;;;5076780;27;89725;-59
2023/09/16 01:38:20;;;;;;;3.60;3.27;;;27.60;48.90;;;;;;5078209;27;87574;-59
2023/09/16 01:40:50;;;;;;;5.40;3.97;;;27.50;48.90;;;;;;5078352;27;88510;-59
2023/09/16 01:43:18;;;;;;;4.93;3.60;;;27.60;48.90;;;;;;5077838;27;88862;-58
2023/09/16 01:45:46;;;;;;;5.63;3.97;;;27.50;48.90;;;;;;5077479;27;88729;-58
2023/09/16 01:48:16;;;;;;;6.27;3.53;;;27.50;48.90;;;;;;5077803;27;88573;-58
2023/09/16 01:50:45;;;;;;;4.73;3.90;;;27.50;48.90;;;;;;5077815;27;89675;-59
2023/09/16 01:53:13;;;;;;;6.53;3.97;;;27.50;48.90;;;;;;5077431;27;88832;-58
2023/09/16 01:55:43;;;;;;;5.43;4.27;;;27.50;48.90;;;;;;5076225;27;88867;-59
2023/09/16 01:58:13;;;;;;;6.37;4.33;;;27.50;48.90;;;;;;5057139;27;88092;-59
2023/09/16 02:00:42;;;;;;;7.97;4.10;;;27.50;48.90;;;;;;5057553;27;90017;-59
2023/09/16 02:03:10;;;;;;;7.00;4.50;;;27.50;48.90;;;;;;5077217;27;88092;-59
2023/09/16 02:05:38;;;;;;;5.70;3.70;;;27.50;48.90;;;;;;5068288;27;88916;-59
2023/09/16 02:08:06;;;;;;;6.00;3.93;;;27.50;48.90;;;;;;5056589;27;87552;-59
2023/09/16 02:10:35;;;;;;;4.27;3.43;;;27.50;48.90;;;;;;5079040;27;89690;-59
2023/09/16 02:13:03;;;;;;;6.83;4.00;;;27.50;48.90;;;;;;5096379;27;89094;-59
2023/09/16 02:15:35;;;;;;;5.53;3.50;;;27.50;48.80;;;;;;5078234;27;88922;-58
2023/09/16 02:18:03;;;;;;;7.83;4.40;;;27.50;48.90;;;;;;5076352;27;87471;-58
2023/09/16 02:20:31;;;;;;;6.67;4.17;;;27.50;48.80;;;;;;5079748;27;88545;-58
2023/09/16 02:22:59;;;;;;;7.47;4.00;;;27.50;49.40;;;;;;5079671;27;90074;-59
2023/09/16 02:25:28;;;;;;;5.77;4.07;;;27.50;48.80;;;;;;5079919;27;89807;-57
2023/09/16 02:27:56;;;;;;;7.47;4.63;;;27.50;48.80;;;;;;5079403;27;87650;-58
2023/09/16 02:30:24;;;;;;;7.07;4.40;;;27.50;48.80;;;;;;5079862;27;89755;-58
2023/09/16 02:32:53;;;;;;;8.63;4.73;;;27.50;48.70;;;;;;5080286;27;87891;-59
2023/09/16 02:35:23;;;;;;;6.30;4.77;;;27.50;48.80;;;;;;5080699;27;88968;-58
2023/09/16 02:37:51;;;;;;;6.87;4.20;;;27.40;48.70;;;;;;5079330;27;87527;-58
2023/09/16 02:40:19;;;;;;;7.07;4.17;;;27.50;49.30;;;;;;5082629;27;89698;-58
2023/09/16 02:42:48;;;;;;;6.57;4.63;;;27.40;48.70;;;;;;5084309;27;87826;-58
2023/09/16 02:45:16;;;;;;;5.47;4.63;;;27.40;48.70;;;;;;5069496;27;88599;-59
2023/09/16 02:47:44;;;;;;;6.37;4.60;;;27.40;48.70;;;;;;5067225;27;87996;-58
2023/09/16 02:50:14;;;;;;;6.63;4.23;;;27.40;48.70;;;;;;5084326;27;89684;-58
2023/09/16 02:52:43;;;;;;;8.27;4.77;;;27.40;48.70;;;;;;5083849;27;89195;-58
2023/09/16 02:55:11;;;;;;;7.53;5.17;;;27.40;48.70;;;;;;5083935;27;88729;-58
2023/09/16 02:57:39;;;;;;;7.93;4.90;;;27.40;49.30;;;;;;5083914;27;87272;-58
2023/09/16 03:00:08;;;;;;;5.60;4.10;;;27.40;48.70;;;;;;5083376;27;89382;-58
2023/09/16 03:02:36;;;;;;;6.93;4.53;;;27.40;49.40;;;;;;5083716;27;89080;-58
2023/09/16 03:05:05;;;;;;;6.77;5.30;;;27.40;48.80;;;;;;5077158;27;88046;-58
2023/09/16 03:07:34;;;;;;;6.10;4.57;;;27.40;48.80;;;;;;5063619;27;87397;-58
2023/09/16 03:10:02;;;;;;;6.50;4.77;;;27.40;48.80;;;;;;5080090;27;89410;-58
2023/09/16 03:12:31;;;;;;;5.07;4.17;;;27.40;48.80;;;;;;5083779;27;90256;-58
2023/09/16 03:14:59;;;;;;;6.67;4.47;;;27.40;48.80;;;;;;5065795;27;90040;-58
2023/09/16 03:17:27;;;;;;;6.43;4.23;;;27.30;48.70;;;;;;5063080;27;87524;-59
2023/09/16 03:19:55;;;;;;;7.50;5.13;;;27.30;48.70;;;;;;5063947;27;89848;-58
2023/09/16 03:22:24;;;;;;;6.40;4.53;;;27.30;48.70;;;;;;5063052;27;88743;-58
2023/09/16 03:24:54;;;;;;;6.10;4.63;;;27.30;48.80;;;;;;5063313;27;89118;-58
2023/09/16 03:27:22;;;;;;;7.10;4.80;;;27.30;48.80;;;;;;5064595;27;87643;-58
2023/09/16 03:29:50;;;;;;;4.70;3.90;;;27.30;48.80;;;;;;5072614;27;89884;-59
2023/09/16 03:32:18;;;;;;;7.60;4.40;;;27.30;48.80;;;;;;5083350;27;89502;-59
2023/09/16 03:34:46;;;;;;;8.83;4.90;;;27.30;48.80;;;;;;5083092;27;87749;-59
2023/09/16 03:37:15;;;;;;;6.43;4.20;;;27.30;48.80;;;;;;5083289;27;87805;-59
2023/09/16 03:39:43;;;;;;;5.03;3.67;;;27.30;48.80;;;;;;5069234;27;89640;-58
2023/09/16 03:42:14;;;;;;;6.80;4.40;;;27.30;48.80;;;;;;5080952;27;89071;-59
2023/09/16 03:44:43;;;;;;;7.20;4.37;;;27.30;48.80;;;;;;5062224;27;88439;-59
2023/09/16 03:47:11;;;;;;;4.17;3.60;;;27.30;48.80;;;;;;5062904;27;87487;-59
2023/09/16 03:49:39;;;;;;;4.43;3.63;;;27.30;48.80;;;;;;5063438;27;89564;-59
2023/09/16 03:52:07;;;;;;;4.13;3.47;;;27.30;48.80;;;;;;5062496;27;88161;-59
2023/09/16 03:54:36;;;;;;;6.87;4.27;;;27.30;48.70;;;;;;5062738;27;88798;-59
2023/09/16 03:57:05;;;;;;;5.00;3.73;;;27.30;48.70;;;;;;5062832;27;87448;-59
2023/09/16 03:59:34;;;;;;;4.90;3.67;;;27.30;48.80;;;;;;5081834;27;89589;-59
2023/09/16 04:02:03;;;;;;;5.90;3.63;;;27.30;48.70;;;;;;5082237;27;90025;-59
2023/09/16 04:04:31;;;;;;;5.13;3.70;;;27.30;48.70;;;;;;5083103;27;89817;-58
2023/09/16 04:07:00;;;;;;;5.60;3.87;;;27.30;48.70;;;;;;5079880;27;89314;-58
2023/09/16 04:09:28;;;;;;;4.73;3.80;;;27.30;48.70;;;;;;5082592;27;89723;-58
2023/09/16 04:11:56;;;;;;;6.87;3.73;;;27.30;48.70;;;;;;5079913;27;89071;-58
2023/09/16 04:14:24;;;;;;;5.03;3.37;;;27.30;48.70;;;;;;5081226;27;88800;-59
2023/09/16 04:16:54;;;;;;;4.57;3.37;;;27.30;49.30;;;;;;5081197;27;87640;-59
2023/09/16 04:19:22;;;;;;;6.37;3.93;;;27.30;48.70;;;;;;5081965;27;90196;-58
2023/09/16 04:21:51;;;;;;;9.73;4.63;;;27.30;48.70;;;;;;5081934;27;89079;-58
2023/09/16 04:24:20;;;;;;;4.77;3.90;;;27.30;48.70;;;;;;5080731;27;88893;-58
2023/09/16 04:26:48;;;;;;;5.27;4.43;;;27.20;48.70;;;;;;5081149;27;87954;-59
2023/09/16 04:29:17;;;;;;;9.73;4.57;;;27.20;48.60;;;;;;5080477;27;89835;-58
2023/09/16 04:31:45;;;;;;;6.90;4.07;;;27.20;48.60;;;;;;5070138;27;89118;-58
2023/09/16 04:34:15;;;;;;;6.33;4.50;;;27.30;48.80;;;;;;5079026;27;89036;-58
2023/09/16 04:36:43;;;;;;;7.30;4.63;;;27.20;48.70;;;;;;5082743;27;87486;-58
2023/09/16 04:39:11;;;;;;;7.43;5.10;;;27.20;48.70;;;;;;5082053;27;88669;-58
2023/09/16 04:41:40;;;;;;;8.03;4.33;;;27.20;48.70;;;;;;5081568;27;88778;-58
2023/09/16 04:44:08;;;;;;;7.57;4.37;;;27.20;48.70;;;;;;5081382;27;89053;-59
2023/09/16 04:46:36;;;;;;;6.40;4.57;;;27.20;48.70;;;;;;5080087;27;87481;-59
2023/09/16 04:49:04;;;;;;;4.40;4.00;;;27.20;48.70;;;;;;5081600;27;89963;-58
2023/09/16 04:51:34;;;;;;;9.17;4.70;;;27.20;48.70;;;;;;5079954;27;90241;-58
2023/09/16 04:54:04;;;;;;;10.37;6.03;;;27.20;48.70;;;;;;5081243;27;89738;-58
2023/09/16 04:56:32;;;;;;;9.23;5.67;;;27.20;48.70;;;;;;5079469;27;87675;-59
2023/09/16 04:59:00;;;;;;;7.80;5.23;;;27.20;48.70;;;;;;5081638;27;89674;-59
2023/09/16 05:01:30;;;;;;;9.13;5.20;;;27.20;48.70;;;;;;5079054;27;89212;-59
2023/09/16 05:03:58;;;;;;;9.63;6.07;;;27.10;48.70;;;;;;5081251;27;88937;-59
2023/09/16 05:06:26;;;;;;;10.20;6.73;;;27.10;48.70;;;;;;5079757;27;87612;-59
2023/09/16 05:08:56;;;;;;;10.33;6.83;;;27.10;48.80;;;;;;5080434;27;89716;-59
2023/09/16 05:11:24;;;;;;;14.10;8.20;;;27.10;48.70;;;;;;5077397;27;89045;-59
2023/09/16 05:13:52;;;;;;;13.43;8.03;;;27.10;48.70;;;;;;5080457;27;88792;-59
2023/09/16 05:16:20;;;;;;;14.00;7.07;;;27.10;48.70;;;;;;5081073;27;88048;-59
2023/09/16 05:18:49;;;;;;;16.47;8.60;;;27.10;48.70;;;;;;5080266;27;89523;-59
2023/09/16 05:21:18;;;;;;;17.47;10.80;;;27.10;49.40;;;;;;5080755;27;89042;-58
2023/09/16 05:23:47;;;;;;;23.50;12.10;;;27.10;48.70;;;;;;5076309;27;88339;-58
2023/09/16 05:26:17;;;;;;;16.07;11.40;;;27.10;48.70;;;;;;5079987;27;87630;-58
2023/09/16 05:28:45;;;;;;;22.10;11.60;;;27.10;48.70;;;;;;5074585;27;89628;-59
2023/09/16 05:31:13;;;;;;;18.53;12.43;;;27.10;48.70;;;;;;5079913;27;87919;-59
2023/09/16 05:33:41;;;;;;;23.87;13.87;;;27.10;48.70;;;;;;5079914;27;89013;-59
2023/09/16 05:36:09;;;;;;;21.17;13.83;;;27.10;48.60;;;;;;5079700;27;87577;-59
2023/09/16 05:38:39;;;;;;;26.33;14.60;;;27.10;48.60;;;;;;5079135;27;89356;-59
2023/09/16 05:41:07;;;;;;;24.27;14.97;;;27.10;48.60;;;;;;5078801;27;90092;-58
2023/09/16 05:43:36;;;;;;;23.10;15.53;;;27.10;48.60;;;;;;5077357;27;87332;-59
2023/09/16 05:46:06;;;;;;;24.20;15.40;;;27.10;48.60;;;;;;5080070;27;87668;-59
2023/09/16 05:48:34;;;;;;;24.27;15.60;;;27.10;48.60;;;;;;5079403;27;89891;-59
2023/09/16 05:51:04;;;;;;;29.77;18.20;;;27.10;48.50;;;;;;5071482;27;89088;-59
2023/09/16 05:53:32;;;;;;;32.87;17.87;;;27.20;48.50;;;;;;5076082;27;89428;-58
2023/09/16 05:56:04;;;;;;;30.20;18.33;;;27.20;48.50;;;;;;5080135;27;87598;-59
2023/09/16 05:58:32;;;;;;;29.57;16.83;;;27.20;48.50;;;;;;5073562;27;89649;-59
2023/09/16 06:01:02;;;;;;;22.50;15.17;;;27.20;48.40;;;;;;5078997;27;89243;-58
2023/09/16 06:03:30;;;;;;;30.67;18.00;;;27.20;48.40;;;;;;5077649;27;87585;-58
2023/09/16 06:05:59;;;;;;;31.47;18.50;;;27.30;48.40;;;;;;5077899;27;88052;-58
2023/09/16 06:08:27;;;;;;;19.27;13.47;;;27.20;48.40;;;;;;5077111;27;89642;-57
2023/09/16 06:10:56;;;;;;;17.63;11.43;;;27.20;48.40;;;;;;5077590;27;89085;-56
2023/09/16 06:13:25;;;;;;;17.40;10.20;;;27.30;48.40;;;;;;5074397;27;89040;-56
2023/09/16 06:15:53;;;;;;;10.87;7.60;;;27.20;48.30;;;;;;5080237;27;87431;-57
2023/09/16 06:18:23;;;;;;;8.77;6.57;;;27.20;48.30;;;;;;5077584;27;89615;-55
2023/09/16 06:20:52;;;;;;;12.07;6.83;;;27.10;48.20;;;;;;5074994;27;89248;-56
2023/09/16 06:23:20;;;;;;;10.30;6.33;;;27.10;48.20;;;;;;5066256;27;88861;-56
2023/09/16 06:25:48;;;;;;;10.03;6.07;;;27.10;48.20;;;;;;5061189;27;87607;-57
2023/09/16 06:28:17;;;;;;;7.43;5.37;;;27.10;48.10;;;;;;5066102;27;89618;-56
2023/09/16 06:30:45;;;;;;;8.33;5.97;;;27.10;48.10;;;;;;5079348;27;89910;-56
2023/09/16 06:33:13;;;;;;;8.70;5.77;;;27.10;48.10;;;;;;5076202;27;89857;-56
2023/09/16 06:35:43;;;;;;;8.30;5.40;;;27.10;48.00;;;;;;5071727;27;88320;-56
2023/09/16 06:38:11;;;;;;;7.67;5.63;;;27.00;48.00;;;;;;5071186;27;89515;-56
2023/09/16 06:40:39;;;;;;;7.40;5.10;;;27.00;48.00;;;;;;5077413;27;89125;-56
2023/09/16 06:43:08;;;;;;;9.50;5.57;;;27.00;48.00;;;;;;5076704;27;89037;-56
2023/09/16 06:45:36;;;;;;;10.80;5.97;;;27.00;47.90;;;;;;5067421;27;87890;-57
2023/09/16 06:48:06;;;;;;;7.60;5.47;;;27.00;47.90;;;;;;5074817;27;89673;-56
2023/09/16 06:50:34;;;;;;;9.30;6.10;;;27.00;48.60;;;;;;5077185;27;89259;-57
2023/09/16 06:53:04;;;;;;;10.10;5.67;;;27.00;47.90;;;;;;5071815;27;88848;-57
2023/09/16 06:55:32;;;;;;;9.37;5.23;;;27.00;48.00;;;;;;5076617;27;87967;-56
2023/09/16 06:58:04;;;;;;;11.10;5.73;;;27.00;47.90;;;;;;5074589;27;89693;-56
2023/09/16 07:00:49;;;;;;;7.43;4.63;;;27.00;47.90;;;;;;5074687;27;87531;-56
2023/09/16 07:03:19;;;;;;;10.13;6.27;;;27.00;47.90;;;;;;5077106;27;89042;-57
2023/09/16 07:05:47;;;;;;;7.60;5.10;;;27.00;47.90;;;;;;5077064;27;87587;-56
2023/09/16 07:08:18;;;;;;;9.93;5.57;;;27.00;48.60;;;;;;5077037;27;89766;-56
2023/09/16 07:10:46;;;;;;;5.90;4.27;;;27.00;47.90;;;;;;5076912;27;87636;-56
2023/09/16 07:13:14;;;;;;;5.90;4.33;;;27.00;47.90;;;;;;5076972;27;88963;-58
2023/09/16 07:15:42;;;;;;;9.70;4.93;;;27.00;47.90;;;;;;5078050;27;88234;-56
2023/09/16 07:18:11;;;;;;;6.80;4.57;;;27.00;47.90;;;;;;5076738;27;89736;-57
2023/09/16 07:20:39;;;;;;;5.43;4.17;;;27.00;48.60;;;;;;5076296;27;89918;-56
2023/09/16 07:23:07;;;;;;;7.77;4.63;;;27.00;48.00;;;;;;5076867;27;89900;-56
2023/09/16 07:25:37;;;;;;;4.90;4.23;;;27.00;47.90;;;;;;5077781;27;87520;-57
2023/09/16 07:28:07;;;;;;;7.47;4.00;;;27.00;47.90;;;;;;5080763;27;88235;-57
2023/09/16 07:30:36;;;;;;;5.03;4.10;;;27.00;47.90;;;;;;5080637;27;89150;-57
2023/09/16 07:33:05;;;;;;;5.67;3.93;;;27.00;47.90;;;;;;5080595;27;88863;-57
2023/09/16 07:35:33;;;;;;;5.10;3.23;;;27.00;47.90;;;;;;5080612;27;87542;-57
2023/09/16 07:38:02;;;;;;;7.40;3.97;;;27.10;48.00;;;;;;5080881;27;89720;-57
2023/09/16 07:40:32;;;;;;;6.20;3.23;;;27.10;48.00;;;;;;5080001;27;87738;-57
2023/09/16 07:43:01;;;;;;;8.10;3.53;;;27.10;48.00;;;;;;5079884;27;87764;-59
2023/09/16 07:45:30;;;;;;;4.30;3.10;;;27.10;48.00;;;;;;5080606;27;87954;-56
2023/09/16 07:47:58;;;;;;;4.23;3.17;;;27.10;48.10;;;;;;5080220;27;90022;-57
2023/09/16 07:50:26;;;;;;;9.17;3.37;;;27.10;48.00;;;;;;5080670;27;88927;-55
2023/09/16 07:52:54;;;;;;;3.27;2.70;;;27.10;48.00;;;;;;5067947;27;88856;-56
2023/09/16 07:55:22;;;;;;;5.97;3.57;;;27.10;48.00;;;;;;5074011;27;88266;-57
2023/09/16 07:57:51;;;;;;;4.33;3.50;;;27.10;48.10;;;;;;5078607;27;89788;-56
2023/09/16 08:00:21;;;;;;;4.60;3.13;;;27.00;48.00;;;;;;5078187;27;89216;-56
2023/09/16 08:02:49;;;;;;;8.27;3.70;;;27.00;48.00;;;;;;5081089;27;87561;-57
2023/09/16 08:05:17;;;;;;;7.03;3.30;;;27.00;48.00;;;;;;5080931;27;87482;-56
2023/09/16 08:07:45;;;;;;;5.67;3.77;;;27.00;48.10;;;;;;5080360;27;89916;-58
2023/09/16 08:10:14;;;;;;;8.73;3.60;;;27.00;48.10;;;;;;5065871;27;88216;-56
2023/09/16 08:12:43;;;;;;;4.97;4.13;;;26.90;48.00;;;;;;5059146;27;88645;-57
2023/09/16 08:15:11;;;;;;;6.63;4.47;;;26.90;48.10;;;;;;5059904;27;87412;-54
2023/09/16 08:17:40;;;;;;;5.10;3.93;;;26.90;48.10;;;;;;5068898;27;89655;-55
2023/09/16 08:20:09;;;;;;;4.50;3.47;;;26.80;48.20;;;;;;5059510;27;89339;-57
2023/09/16 08:22:37;;;;;;;5.47;3.63;;;26.70;48.20;;;;;;5075976;27;88942;-56
2023/09/16 08:25:06;;;;;;;3.97;3.20;;;26.70;48.30;;;;;;5068469;27;87756;-57
2023/09/16 08:27:35;;;;;;;6.27;3.70;;;26.60;48.30;;;;;;5079537;27;89775;-57
2023/09/16 08:30:03;;;;;;;4.50;3.53;;;26.60;48.30;;;;;;5079758;27;87479;-55
2023/09/16 08:32:31;;;;;;;5.57;3.30;;;26.60;48.40;;;;;;5079314;27;88788;-55
2023/09/16 08:35:01;;;;;;;3.53;2.87;;;26.60;48.40;;;;;;5079751;27;88010;-55
2023/09/16 08:37:29;;;;;;;4.50;3.10;;;26.60;48.40;;;;;;5078270;27;88679;-55
2023/09/16 08:39:57;;;;;;;7.03;3.60;;;26.70;48.40;;;;;;5079150;27;88762;-56
2023/09/16 08:42:29;;;;;;;3.87;3.20;;;26.70;48.40;;;;;;5074748;27;88939;-59
2023/09/16 08:44:58;;;;;;;5.27;3.10;;;26.70;48.30;;;;;;5078449;27;87700;-55
2023/09/16 08:47:28;;;;;;;4.87;3.90;;;26.70;48.40;;;;;;5069734;27;89444;-56
2023/09/16 08:50:00;;;;;;;5.03;2.97;;;26.60;48.40;;;;;;5079261;27;91941;-57
2023/09/16 08:52:30;;;;;;;5.73;3.30;;;26.60;48.50;;;;;;5079152;27;88833;-55
2023/09/16 08:54:58;;;;;;;4.67;3.30;;;26.60;48.40;;;;;;5079779;27;87556;-56
2023/09/16 08:57:26;;;;;;;5.37;2.57;;;26.70;48.40;;;;;;5072599;27;90011;-56
2023/09/16 08:59:55;;;;;;;3.13;2.33;;;26.60;48.30;;;;;;5059521;27;90414;-57
2023/09/16 09:02:24;;;;;;;4.43;2.63;;;26.60;48.30;;;;;;5069507;27;89807;-55
2023/09/16 09:04:53;;;;;;;6.50;3.43;;;26.60;48.40;;;;;;5059124;27;88107;-55
2023/09/16 09:07:21;;;;;;;3.10;2.27;;;26.60;48.40;;;;;;5069144;27;89605;-55
2023/09/16 09:09:51;;;;;;;3.67;2.30;;;26.60;48.30;;;;;;5079241;27;88854;-59
2023/09/16 09:12:19;;;;;;;2.77;2.27;;;26.60;48.20;;;;;;5079184;27;88691;-58
2023/09/16 09:14:47;;;;;;;4.50;2.60;;;26.60;48.20;;;;;;5078865;27;88045;-56
2023/09/16 09:17:15;;;;;;;120.23;42.60;;;26.60;48.20;;;;;;5079047;27;89736;-55
2023/09/16 09:19:44;;;;;;;78.03;31.57;;;26.60;48.20;;;;;;5078083;27;89251;-58
2023/09/16 09:22:12;;;;;;;52.53;21.60;;;26.70;48.20;;;;;;5077019;27;88947;-56
2023/09/16 09:24:40;;;;;;;31.87;13.23;;;26.80;48.20;;;;;;5076544;27;88814;-56
2023/09/16 09:27:10;;;;;;;28.97;10.93;;;26.90;48.20;;;;;;5074449;27;89629;-56
2023/09/16 09:29:38;;;;;;;14.87;6.43;;;26.90;48.10;;;;;;5075551;27;89252;-57
2023/09/16 09:32:07;;;;;;;8.10;4.90;;;26.90;48.00;;;;;;5078013;27;89045;-57
2023/09/16 09:34:35;;;;;;;12.27;5.00;;;26.90;48.00;;;;;;5075779;27;87882;-57
2023/09/16 09:37:03;;;;;;;4.33;2.47;;;26.90;48.60;;;;;;5078185;27;89683;-56
2023/09/16 09:39:31;;;;;;;4.27;3.40;;;26.90;47.80;;;;;;5078244;27;89202;-57
2023/09/16 09:41:59;;;;;;;5.47;2.60;;;26.90;47.80;;;;;;5078035;27;87801;-57
2023/09/16 09:44:32;;;;;;;3.17;1.90;;;26.90;47.80;;;;;;5078778;27;87368;-57
2023/09/16 09:47:00;;;;;;;3.93;2.07;;;26.90;47.60;;;;;;5078432;27;89686;-57
2023/09/16 09:49:28;;;;;;;2.93;1.37;;;26.80;47.50;;;;;;5076736;27;90119;-57
2023/09/16 09:51:58;;;;;;;3.60;1.73;;;26.80;47.50;;;;;;5077768;27;89857;-56
2023/09/16 09:54:26;;;;;;;2.40;1.83;;;26.90;47.40;;;;;;5077922;27;87598;-56
2023/09/16 09:56:54;;;;;;;2.77;1.80;;;26.80;47.40;;;;;;5078573;27;89517;-56
2023/09/16 09:59:22;;;;;;;4.67;1.97;;;26.90;47.40;;;;;;5077869;27;88011;-56
2023/09/16 10:01:52;;;;;;;2.27;1.60;;;26.90;47.30;;;;;;5078005;27;88874;-58
2023/09/16 10:04:21;;;;;;;2.50;1.57;;;27.00;47.40;;;;;;5078431;27;87364;-57
2023/09/16 10:06:49;;;;;;;2.37;1.43;;;27.00;47.30;;;;;;5077990;27;89810;-56
2023/09/16 10:09:17;;;;;;;1.60;1.50;;;26.90;47.20;;;;;;5078446;27;89434;-56
2023/09/16 10:11:45;;;;;;;2.17;1.67;;;26.90;47.20;;;;;;5078131;27;88695;-56
2023/09/16 10:14:14;;;;;;;5.50;2.07;;;27.00;47.30;;;;;;5076727;27;88921;-56
2023/09/16 10:16:42;;;;;;;1.80;1.60;;;27.00;47.20;;;;;;5077378;27;89736;-57
2023/09/16 10:19:12;;;;;;;2.20;1.70;;;27.00;47.20;;;;;;5062208;27;90389;-56
2023/09/16 10:21:41;;;;;;;2.77;1.90;;;27.00;47.20;;;;;;5057696;27;91063;-56
2023/09/16 10:24:09;;;;;;;2.97;2.30;;;27.00;47.20;;;;;;5075179;27;87666;-55
2023/09/16 10:26:38;;;;;;;2.97;1.90;;;27.00;47.20;;;;;;5078424;27;89734;-55
2023/09/16 10:29:07;;;;;;;5.07;2.23;;;27.00;47.10;;;;;;5077765;27;88893;-56
2023/09/16 10:31:36;;;;;;;2.00;1.77;;;27.10;47.30;;;;;;5077837;27;88818;-56
2023/09/16 10:34:05;;;;;;;3.93;1.73;;;27.10;47.30;;;;;;5076207;27;87632;-55
2023/09/16 10:36:35;;;;;;;3.10;1.93;;;27.00;47.10;;;;;;5061999;27;89868;-56
2023/09/16 10:39:04;;;;;;;2.73;1.90;;;27.00;47.10;;;;;;5056660;27;90088;-55
2023/09/16 10:41:33;;;;;;;3.33;2.07;;;27.00;47.10;;;;;;5057506;27;88336;-55
2023/09/16 10:44:01;;;;;;;3.47;2.27;;;27.00;47.10;;;;;;5056935;27;90954;-55
2023/09/16 10:46:29;;;;;;;2.77;1.93;;;27.00;47.20;;;;;;5057505;27;89659;-55
2023/09/16 10:48:58;;;;;;;3.47;1.73;;;27.10;47.30;;;;;;5057171;27;88373;-55
2023/09/16 10:51:26;;;;;;;3.87;1.97;;;27.10;47.20;;;;;;5057360;27;87891;-54
2023/09/16 10:54:02;;;;;;;2.83;2.07;;;27.10;47.10;;;;;;5057875;27;87596;-54
2023/09/16 10:56:33;;;;;;;3.87;2.03;;;27.10;47.20;;;;;;5057843;27;89701;-56
2023/09/16 10:59:02;;;;;;;3.03;2.10;;;27.10;47.20;;;;;;5057380;27;89104;-55
2023/09/16 11:01:36;;;;;;;3.40;2.37;;;27.20;47.10;;;;;;5059331;27;88927;-54
2023/09/16 11:04:09;;;;;;;3.47;2.07;;;27.20;47.10;;;;;;5060294;27;88011;-53
2023/09/16 11:06:37;;;;;;;1.80;1.60;;;27.20;47.10;;;;;;5059985;27;88707;-53
2023/09/16 11:09:07;;;;;;;1.70;1.43;;;27.30;47.10;;;;;;5061127;27;89073;-53
2023/09/16 11:11:35;;;;;;;1.93;1.53;;;27.30;47.20;;;;;;5060300;27;88876;-54
2023/09/16 11:14:03;;;;;;;2.20;1.70;;;27.30;47.10;;;;;;5060480;27;87541;-53
2023/09/16 11:16:43;;;;;;;3.07;2.30;;;27.40;47.10;;;;;;5060021;27;88467;-54
2023/09/16 11:19:15;;;;;;;2.73;1.30;;;27.40;47.10;;;;;;5070866;27;89112;-55
2023/09/16 11:21:44;;;;;;;2.50;1.47;;;27.40;47.00;;;;;;5101840;27;88833;-53
2023/09/16 11:24:14;;;;;;;2.97;1.80;;;27.40;46.90;;;;;;5094561;27;87891;-55
2023/09/16 11:26:42;;;;;;;1.50;1.30;;;27.40;46.80;;;;;;5080343;27;88579;-54
2023/09/16 11:29:17;;;;;;;2.00;1.37;;;27.40;46.70;;;;;;5080894;27;89851;-54
2023/09/16 11:31:45;;;;;;;1.80;1.20;;;27.40;46.70;;;;;;5080666;27;89860;-53
2023/09/16 11:34:15;;;;;;;1.57;1.10;;;27.50;46.70;;;;;;5081116;27;87285;-53
2023/09/16 11:36:44;;;;;;;1.63;1.50;;;27.50;46.70;;;;;;5089510;27;89658;-54
2023/09/16 11:39:18;;;;;;;6.00;1.73;;;27.50;46.70;;;;;;5079909;27;88928;-54
2023/09/16 11:41:46;;;;;;;4.53;1.50;;;27.60;46.80;;;;;;5081069;27;90005;-55
2023/09/16 11:44:15;;;;;;;2.03;1.50;;;27.60;46.80;;;;;;5081106;27;87598;-54
2023/09/16 11:46:45;;;;;;;2.70;1.37;;;27.60;46.80;;;;;;5080147;27;90141;-54
2023/09/16 11:49:16;;;;;;;1.70;1.43;;;27.60;46.70;;;;;;5080490;27;88764;-53
2023/09/16 11:51:50;;;;;;;3.97;1.30;;;27.60;46.70;;;;;;5080748;27;88884;-53
2023/09/16 11:54:20;;;;;;;3.33;1.53;;;27.60;46.60;;;;;;5079204;27;90045;-56
2023/09/16 11:56:48;;;;;;;2.00;1.27;;;27.60;46.60;;;;;;5080963;27;89771;-55
2023/09/16 11:59:16;;;;;;;0.90;0.90;;;27.70;46.50;;;;;;5080186;27;89384;-55
2023/09/16 12:01:45;;;;;;;1.63;0.87;;;27.70;46.50;;;;;;5078852;27;88530;-54
2023/09/16 12:04:15;;;;;;;1.00;0.80;;;27.70;46.20;;;;;;5060236;27;88193;-54
2023/09/16 12:06:43;;;;;;;1.43;1.17;;;27.70;46.10;;;;;;5072673;27;89652;-55
2023/09/16 12:09:16;;;;;;;1.20;1.10;;;27.70;46.00;;;;;;5081065;27;88843;-54
2023/09/16 12:11:49;;;;;;;1.20;0.73;;;27.70;45.90;;;;;;5079336;27;90180;-54
2023/09/16 12:14:17;;;;;;;0.87;0.87;;;27.70;45.80;;;;;;5099214;27;87542;-55
2023/09/16 12:16:45;;;;;;;2.47;0.80;;;27.70;45.60;;;;;;5100980;27;89844;-54
2023/09/16 12:19:14;;;;;;;1.67;0.90;;;27.70;45.50;;;;;;5100182;27;89991;-54
2023/09/16 12:21:46;;;;;;;0.90;0.90;;;27.80;45.40;;;;;;5100074;27;89748;-54
2023/09/16 12:24:19;;;;;;;1.23;0.97;;;27.80;45.20;;;;;;5100770;27;88238;-54
2023/09/16 12:26:50;;;;;;;0.80;0.80;;;27.80;45.10;;;;;;5100222;27;89686;-54
2023/09/16 12:29:18;;;;;;;1.37;0.90;;;27.80;45.00;;;;;;5095436;27;87493;-53
2023/09/16 12:31:46;;;;;;;2.17;0.60;;;27.80;45.00;;;;;;5080352;27;89098;-55
2023/09/16 12:34:16;;;;;;;0.87;0.83;;;27.80;44.80;;;;;;5077039;27;88365;-54
2023/09/16 12:36:48;;;;;;;1.00;0.70;;;27.80;44.70;;;;;;5100270;27;89636;-55
2023/09/16 12:39:16;;;;;;;2.67;0.90;;;27.70;44.60;;;;;;5094170;27;89042;-59
2023/09/16 12:41:46;;;;;;;0.87;0.83;;;27.80;44.60;;;;;;5100311;27;88396;-57
2023/09/16 12:44:29;;;;;;;4.20;1.73;;;27.80;44.60;;;;;;5099457;27;87996;-55
2023/09/16 12:46:57;;;;;;;0.90;0.70;;;27.80;44.40;;;;;;5083917;27;87506;-57
2023/09/16 12:49:26;;;;;;;1.00;0.73;;;27.80;44.30;;;;;;5078891;27;89497;-55
2023/09/16 12:51:54;;;;;;;0.97;0.87;;;27.80;44.20;;;;;;5092901;27;87475;-56
2023/09/16 12:54:22;;;;;;;0.90;0.87;;;27.80;44.00;;;;;;5099495;27;87624;-59